Time;durP1;ratioP1;P1;durP2;ratioP2;P2;SDS_P1;SDS_P2;PMS_P1;PMS_P2;Temp;Humidity;BMP_temperature;BMP_pressure;BME280_temperature;BME280_humidity;BME280_pressure;Samples;Min_cycle;Max_cycle;Signal;HPM_P1;HPM_P2
2023/12/16 00:00:10;;;;;;;37.20;14.33;;;6.40;94.90;;;;;;4979049;28;20197;-91
2023/12/16 00:02:35;;;;;;;37.87;14.77;;;6.40;94.90;;;;;;4979078;28;20241;-92
2023/12/16 00:05:01;;;;;;;35.37;14.80;;;6.40;94.80;;;;;;4995041;28;20229;-92
2023/12/16 00:07:26;;;;;;;41.07;14.67;;;6.40;94.80;;;;;;4978651;28;20226;-91
2023/12/16 00:09:52;;;;;;;37.93;15.63;;;6.40;94.80;;;;;;4978413;28;20198;-91
2023/12/16 00:12:18;;;;;;;34.47;14.33;;;6.40;94.80;;;;;;4978743;28;20580;-91
2023/12/16 00:14:44;;;;;;;29.80;13.63;;;6.40;94.80;;;;;;4980014;28;20266;-92
2023/12/16 00:17:09;;;;;;;23.50;12.20;;;6.30;94.70;;;;;;4985764;28;20170;-92
2023/12/16 00:19:35;;;;;;;28.93;14.47;;;6.30;94.70;;;;;;4983974;28;20624;-93
2023/12/16 00:22:00;;;;;;;21.47;11.40;;;6.30;94.80;;;;;;4981046;28;20175;-92
2023/12/16 00:24:26;;;;;;;33.30;13.33;;;6.30;94.70;;;;;;4982649;28;20269;-92
2023/12/16 00:26:51;;;;;;;33.10;12.87;;;6.30;94.70;;;;;;4981627;28;20233;-93
2023/12/16 00:29:17;;;;;;;34.70;9.20;;;6.20;94.70;;;;;;4981516;28;20257;-92
2023/12/16 00:31:43;;;;;;;38.77;10.47;;;6.10;94.70;;;;;;4997454;28;20297;-93
2023/12/16 00:34:10;;;;;;;27.73;12.77;;;6.20;94.80;;;;;;4980686;28;20514;-93
2023/12/16 00:36:35;;;;;;;30.90;13.53;;;6.10;94.70;;;;;;4979980;28;20186;-92
2023/12/16 00:39:02;;;;;;;30.33;11.80;;;6.20;94.80;;;;;;4980746;28;20253;-93
2023/12/16 00:41:29;;;;;;;31.43;8.47;;;6.10;94.80;;;;;;4995799;28;20185;-94
2023/12/16 00:43:54;;;;;;;33.53;10.23;;;6.10;94.80;;;;;;4997606;28;20170;-93
2023/12/16 00:46:20;;;;;;;41.13;13.47;;;6.10;94.80;;;;;;4980165;28;20650;-93
2023/12/16 00:48:46;;;;;;;29.07;13.30;;;6.10;94.80;;;;;;4979954;28;20711;-93
2023/12/16 00:51:11;;;;;;;34.90;9.57;;;6.20;94.80;;;;;;4979578;28;20197;-93
2023/12/16 00:53:37;;;;;;;33.93;9.20;;;6.10;94.70;;;;;;4996014;28;20253;-94
2023/12/16 00:56:03;;;;;;;29.97;10.67;;;6.00;94.80;;;;;;4995796;28;20184;-94
2023/12/16 00:58:28;;;;;;;28.70;10.37;;;6.00;94.90;;;;;;4978913;28;20185;-93
2023/12/16 01:00:54;;;;;;;31.03;10.20;;;5.90;94.90;;;;;;4979919;28;20193;-93
2023/12/16 01:03:19;;;;;;;38.27;9.93;;;5.90;95.00;;;;;;4980183;28;20666;-93
2023/12/16 01:05:45;;;;;;;34.43;9.97;;;5.90;95.00;;;;;;4995326;28;20647;-93
2023/12/16 01:08:10;;;;;;;33.80;9.10;;;5.90;95.00;;;;;;4995621;28;20257;-93
2023/12/16 01:10:36;;;;;;;28.93;9.13;;;5.90;95.00;;;;;;4995520;28;20209;-93
2023/12/16 01:13:01;;;;;;;40.83;9.57;;;5.90;95.10;;;;;;4995111;28;20689;-93
2023/12/16 01:15:27;;;;;;;35.93;8.83;;;6.00;95.10;;;;;;4993514;28;20177;-92
2023/12/16 01:17:53;;;;;;;37.53;9.03;;;6.00;95.00;;;;;;4993200;28;20658;-90
2023/12/16 01:20:18;;;;;;;25.10;9.17;;;6.00;95.00;;;;;;4992813;28;20222;-91
2023/12/16 01:22:44;;;;;;;33.93;8.73;;;6.00;95.00;;;;;;4992928;28;20174;-91
2023/12/16 01:25:10;;;;;;;24.80;9.30;;;6.00;95.00;;;;;;4993185;28;20177;-91
2023/12/16 01:27:35;;;;;;;27.47;12.67;;;6.00;94.90;;;;;;4993263;28;20225;-92
2023/12/16 01:30:03;;;;;;;28.73;13.90;;;6.00;94.90;;;;;;4977167;28;20562;-91
2023/12/16 01:32:29;;;;;;;31.37;13.27;;;6.00;94.80;;;;;;4977134;28;20177;-91
2023/12/16 01:34:55;;;;;;;27.07;12.53;;;6.00;94.80;;;;;;4976618;28;20203;-91
2023/12/16 01:37:21;;;;;;;29.00;13.83;;;6.00;94.80;;;;;;4976691;28;20573;-91
2023/12/16 01:39:46;;;;;;;30.57;13.40;;;6.00;94.80;;;;;;4976541;28;20194;-92
2023/12/16 01:42:12;;;;;;;37.87;14.30;;;6.00;94.70;;;;;;4976860;28;20178;-91
2023/12/16 01:44:37;;;;;;;28.53;13.23;;;6.10;94.60;;;;;;4976869;28;20182;-91
2023/12/16 01:47:03;;;;;;;26.77;12.60;;;6.10;94.50;;;;;;4976876;28;20193;-92
2023/12/16 01:49:29;;;;;;;28.13;11.83;;;6.10;94.50;;;;;;4976749;28;20562;-91
2023/12/16 01:51:55;;;;;;;28.80;11.77;;;6.10;94.40;;;;;;4976955;28;20197;-91
2023/12/16 01:54:21;;;;;;;26.93;12.13;;;6.10;94.40;;;;;;4976763;28;20174;-91
2023/12/16 01:56:55;;;;;;;34.53;12.10;;;6.10;94.30;;;;;;4977024;28;20174;-91
2023/12/16 01:59:21;;;;;;;30.40;11.53;;;6.10;94.20;;;;;;4976282;28;20280;-91
2023/12/16 02:01:46;;;;;;;36.03;12.50;;;6.10;94.20;;;;;;4976577;28;20182;-91
2023/12/16 02:04:13;;;;;;;28.20;10.70;;;6.20;94.20;;;;;;4976614;28;20177;-92
2023/12/16 02:06:39;;;;;;;25.10;11.80;;;6.30;94.10;;;;;;4976879;28;20210;-91
2023/12/16 02:09:06;;;;;;;22.53;6.80;;;6.30;94.00;;;;;;4976488;28;20218;-91
2023/12/16 02:11:32;;;;;;;17.40;7.27;;;6.30;93.90;;;;;;4992875;28;20232;-91
2023/12/16 02:13:57;;;;;;;18.73;10.77;;;6.30;93.70;;;;;;4992847;28;20545;-91
2023/12/16 02:16:23;;;;;;;39.97;11.87;;;6.40;93.50;;;;;;4976695;28;20174;-91
2023/12/16 02:18:49;;;;;;;34.37;12.90;;;6.40;93.40;;;;;;4976648;28;20289;-91
2023/12/16 02:21:15;;;;;;;29.27;7.60;;;6.40;93.30;;;;;;4976663;28;20182;-91
2023/12/16 02:23:41;;;;;;;20.70;8.17;;;6.50;93.30;;;;;;4992797;28;20182;-91
2023/12/16 02:26:07;;;;;;;33.70;11.47;;;6.50;93.20;;;;;;4992655;28;20178;-91
2023/12/16 02:28:33;;;;;;;26.43;12.03;;;6.40;93.10;;;;;;4977329;28;20189;-91
2023/12/16 02:30:58;;;;;;;21.93;11.67;;;6.50;93.10;;;;;;4976777;28;20201;-91
2023/12/16 02:33:24;;;;;;;27.45;7.60;;;6.50;93.00;;;;;;4979831;28;20197;-91
2023/12/16 02:35:49;;;;;;;21.17;6.83;;;6.50;92.90;;;;;;4980546;28;20665;-91
2023/12/16 02:38:15;;;;;;;26.90;14.57;;;6.50;92.90;;;;;;4996696;28;20233;-91
2023/12/16 02:40:42;;;;;;;25.63;12.63;;;6.50;92.90;;;;;;4980105;28;20193;-91
2023/12/16 02:43:11;;;;;;;27.50;12.53;;;6.40;92.80;;;;;;4980412;28;20182;-91
2023/12/16 02:45:37;;;;;;;19.93;7.67;;;6.50;92.70;;;;;;4980325;28;20598;-91
2023/12/16 02:48:03;;;;;;;15.47;7.03;;;6.40;92.60;;;;;;4980500;28;20177;-91
2023/12/16 02:50:28;;;;;;;20.27;6.70;;;6.40;92.60;;;;;;4996211;28;20579;-91
2023/12/16 02:52:54;;;;;;;21.50;8.10;;;6.40;92.50;;;;;;4996745;28;20178;-91
2023/12/16 02:55:19;;;;;;;22.77;7.13;;;6.40;92.50;;;;;;4996401;28;20178;-91
2023/12/16 02:57:45;;;;;;;20.07;7.23;;;6.50;92.40;;;;;;4996065;28;20206;-91
2023/12/16 03:00:11;;;;;;;25.87;8.13;;;6.40;92.50;;;;;;4996227;28;20288;-91
2023/12/16 03:02:36;;;;;;;17.47;6.77;;;6.40;92.30;;;;;;4979613;28;20273;-90
2023/12/16 03:05:03;;;;;;;18.77;7.23;;;6.40;92.30;;;;;;4996222;28;20674;-91
2023/12/16 03:07:29;;;;;;;19.60;8.40;;;6.40;92.30;;;;;;4996739;28;20217;-91
2023/12/16 03:09:54;;;;;;;20.53;7.50;;;6.40;92.20;;;;;;4995777;28;20230;-91
2023/12/16 03:12:20;;;;;;;18.47;7.60;;;6.40;92.10;;;;;;4995752;28;20241;-91
2023/12/16 03:14:46;;;;;;;26.97;7.83;;;6.50;92.00;;;;;;4979439;28;20186;-91
2023/12/16 03:17:12;;;;;;;17.83;8.27;;;6.40;91.90;;;;;;4995965;28;20668;-91
2023/12/16 03:19:38;;;;;;;21.77;13.20;;;6.40;91.90;;;;;;4996128;28;20190;-91
2023/12/16 03:22:03;;;;;;;16.40;12.07;;;6.40;91.80;;;;;;4979626;28;20221;-91
2023/12/16 03:24:29;;;;;;;24.03;13.73;;;6.40;91.70;;;;;;4979645;28;20182;-92
2023/12/16 03:26:55;;;;;;;16.60;13.20;;;6.50;91.60;;;;;;4980171;28;20186;-91
2023/12/16 03:29:20;;;;;;;21.97;12.90;;;6.50;91.60;;;;;;4979135;28;20745;-91
2023/12/16 03:31:46;;;;;;;21.07;13.50;;;6.40;91.70;;;;;;4979799;28;20600;-91
2023/12/16 03:34:11;;;;;;;25.20;15.23;;;6.40;91.70;;;;;;4980206;28;20182;-91
2023/12/16 03:36:37;;;;;;;24.80;14.10;;;6.30;91.50;;;;;;4996350;28;20650;-91
2023/12/16 03:39:04;;;;;;;16.57;14.33;;;6.40;91.50;;;;;;4979875;28;20705;-91
2023/12/16 03:41:29;;;;;;;26.77;15.50;;;6.30;91.50;;;;;;4979011;28;20201;-91
2023/12/16 03:43:55;;;;;;;22.83;14.83;;;6.30;91.50;;;;;;4978894;28;20185;-91
2023/12/16 03:46:21;;;;;;;24.57;14.97;;;6.30;91.50;;;;;;4979555;28;20182;-91
2023/12/16 03:48:47;;;;;;;26.17;14.83;;;6.30;91.60;;;;;;4978883;28;20297;-91
2023/12/16 03:51:13;;;;;;;22.17;14.83;;;6.30;91.50;;;;;;4978712;28;20284;-91
2023/12/16 03:53:39;;;;;;;22.53;15.83;;;6.30;91.40;;;;;;4978874;28;20262;-92
2023/12/16 03:56:05;;;;;;;26.47;14.67;;;6.30;91.50;;;;;;4978920;28;20629;-91
2023/12/16 03:58:30;;;;;;;23.83;15.53;;;6.30;91.20;;;;;;4978383;28;20178;-91
2023/12/16 04:00:56;;;;;;;23.83;15.83;;;6.30;91.20;;;;;;4978924;28;20239;-91
2023/12/16 04:03:21;;;;;;;17.13;8.93;;;6.20;91.20;;;;;;4979049;28;20205;-90
2023/12/16 04:05:47;;;;;;;19.03;9.00;;;6.30;91.30;;;;;;4994860;28;20233;-91
2023/12/16 04:08:12;;;;;;;19.17;12.33;;;6.20;91.20;;;;;;4995055;28;20190;-91
2023/12/16 04:10:38;;;;;;;19.03;14.53;;;6.20;91.30;;;;;;4978981;28;20202;-91
2023/12/16 04:13:04;;;;;;;25.63;15.60;;;6.20;91.20;;;;;;4996074;28;20174;-91
2023/12/16 04:15:29;;;;;;;23.97;9.77;;;6.20;91.20;;;;;;4978435;28;20186;-91
2023/12/16 04:17:55;;;;;;;18.60;9.10;;;6.10;91.20;;;;;;4978147;28;20185;-91
2023/12/16 04:20:20;;;;;;;25.33;14.77;;;6.10;91.30;;;;;;4994382;28;20212;-91
2023/12/16 04:22:46;;;;;;;20.47;15.43;;;6.10;91.40;;;;;;4979198;28;20260;-92
2023/12/16 04:25:11;;;;;;;22.27;15.50;;;6.00;91.40;;;;;;4978391;28;20553;-91
2023/12/16 04:27:37;;;;;;;23.87;9.17;;;6.10;91.30;;;;;;4978186;28;20178;-91
2023/12/16 04:30:04;;;;;;;21.13;9.27;;;6.10;91.20;;;;;;4978358;28;20213;-91
2023/12/16 04:32:30;;;;;;;16.83;9.43;;;6.10;91.20;;;;;;4995442;28;20227;-91
2023/12/16 04:34:55;;;;;;;14.90;9.07;;;6.10;91.20;;;;;;4994334;28;20654;-91
2023/12/16 04:37:21;;;;;;;12.60;8.17;;;6.10;91.30;;;;;;4994194;28;20289;-91
2023/12/16 04:39:47;;;;;;;16.17;9.03;;;6.20;91.20;;;;;;4994048;28;20273;-92
2023/12/16 04:42:12;;;;;;;23.83;9.03;;;6.20;91.20;;;;;;4994145;28;20189;-91
2023/12/16 04:44:38;;;;;;;12.90;8.60;;;6.20;91.10;;;;;;4993833;28;20182;-92
2023/12/16 04:47:04;;;;;;;14.80;9.50;;;6.30;91.10;;;;;;4994029;28;20197;-91
2023/12/16 04:49:29;;;;;;;23.07;8.50;;;6.30;91.10;;;;;;4977705;28;20202;-91
2023/12/16 04:51:55;;;;;;;14.63;8.00;;;6.30;91.10;;;;;;4993791;28;20349;-91
2023/12/16 04:54:21;;;;;;;19.97;8.83;;;6.30;90.90;;;;;;4995015;28;20201;-91
2023/12/16 04:56:47;;;;;;;21.17;9.33;;;6.30;90.80;;;;;;4993152;28;20182;-92
2023/12/16 04:59:13;;;;;;;16.40;8.40;;;6.30;90.70;;;;;;4993805;28;20190;-91
2023/12/16 05:01:39;;;;;;;20.27;14.20;;;6.30;90.70;;;;;;4977558;28;20209;-91
2023/12/16 05:04:05;;;;;;;23.27;15.03;;;6.30;90.70;;;;;;4994793;28;20206;-91
2023/12/16 05:06:30;;;;;;;20.33;13.97;;;6.40;90.60;;;;;;4977251;28;20561;-91
2023/12/16 05:08:56;;;;;;;22.00;14.33;;;6.40;90.30;;;;;;4977395;28;20678;-91
2023/12/16 05:11:22;;;;;;;25.03;16.83;;;6.50;90.20;;;;;;4977323;28;20232;-92
2023/12/16 05:13:48;;;;;;;21.00;14.83;;;6.50;90.00;;;;;;4977642;28;20178;-91
2023/12/16 05:16:20;;;;;;;20.70;14.17;;;6.50;89.80;;;;;;4977341;28;20661;-91
2023/12/16 05:18:46;;;;;;;17.80;14.77;;;6.60;89.70;;;;;;4977114;28;20201;-91
2023/12/16 05:21:12;;;;;;;20.70;15.20;;;6.60;89.40;;;;;;4993359;28;20268;-91
2023/12/16 05:23:38;;;;;;;16.27;14.13;;;6.60;89.30;;;;;;4977017;28;20618;-90
2023/12/16 05:26:03;;;;;;;19.30;16.03;;;6.70;89.10;;;;;;4977424;28;20190;-91
2023/12/16 05:28:31;;;;;;;28.83;15.37;;;6.70;88.90;;;;;;4976840;28;20245;-92
2023/12/16 05:30:56;;;;;;;21.43;15.83;;;6.70;89.00;;;;;;4976888;28;20205;-91
2023/12/16 05:33:22;;;;;;;19.43;15.77;;;6.70;88.80;;;;;;4976890;28;20179;-91
2023/12/16 05:35:47;;;;;;;16.83;15.10;;;6.70;88.90;;;;;;4977062;28;20170;-91
2023/12/16 05:38:13;;;;;;;22.20;15.60;;;6.70;88.80;;;;;;4977213;28;20272;-91
2023/12/16 05:40:38;;;;;;;20.93;15.53;;;6.70;88.80;;;;;;4977256;28;20293;-91
2023/12/16 05:43:04;;;;;;;17.57;15.17;;;6.70;88.60;;;;;;4976873;28;20246;-91
2023/12/16 05:45:29;;;;;;;21.23;15.70;;;6.70;88.80;;;;;;4976796;28;20273;-91
2023/12/16 05:47:55;;;;;;;18.03;9.07;;;6.70;88.60;;;;;;4976711;28;20209;-91
2023/12/16 05:50:20;;;;;;;14.10;8.77;;;6.70;88.50;;;;;;4976737;28;20233;-91
2023/12/16 05:52:46;;;;;;;17.37;15.47;;;6.70;88.50;;;;;;4993086;28;20261;-91
2023/12/16 05:55:11;;;;;;;20.73;15.73;;;6.70;88.40;;;;;;4977088;28;20685;-91
2023/12/16 05:57:37;;;;;;;19.97;17.83;;;6.70;88.40;;;;;;4977613;28;20185;-91
2023/12/16 06:00:03;;;;;;;12.77;9.10;;;6.70;88.70;;;;;;4976764;28;20646;-91
2023/12/16 06:02:29;;;;;;;18.57;9.73;;;6.70;88.60;;;;;;4977621;28;20182;-91
2023/12/16 06:04:54;;;;;;;22.50;17.30;;;6.70;88.50;;;;;;4992768;28;20693;-90
2023/12/16 06:07:20;;;;;;;27.73;17.80;;;6.70;88.50;;;;;;4994253;28;20185;-91
2023/12/16 06:09:45;;;;;;;20.60;18.43;;;6.70;88.40;;;;;;4980638;28;20213;-91
2023/12/16 06:12:11;;;;;;;17.43;9.50;;;6.80;88.10;;;;;;4980768;28;20198;-91
2023/12/16 06:14:36;;;;;;;17.87;9.33;;;6.70;88.30;;;;;;4996848;28;20534;-91
2023/12/16 06:17:02;;;;;;;17.50;16.00;;;6.70;88.30;;;;;;4998440;28;20176;-92
2023/12/16 06:19:27;;;;;;;21.33;17.53;;;6.80;88.20;;;;;;4980781;28;20198;-91
2023/12/16 06:21:53;;;;;;;24.63;18.60;;;6.80;88.10;;;;;;4980465;28;20724;-91
2023/12/16 06:24:19;;;;;;;13.90;9.37;;;6.80;88.10;;;;;;4980428;28;20216;-91
2023/12/16 06:26:45;;;;;;;16.97;9.13;;;6.80;88.00;;;;;;4980347;28;20185;-91
2023/12/16 06:29:10;;;;;;;20.57;9.80;;;6.70;88.10;;;;;;4996381;28;20692;-91
2023/12/16 06:31:36;;;;;;;17.13;10.50;;;6.70;88.30;;;;;;4996666;28;20193;-91
2023/12/16 06:34:01;;;;;;;14.37;9.00;;;6.80;88.20;;;;;;4980203;28;20302;-91
2023/12/16 06:36:27;;;;;;;24.70;9.90;;;6.70;88.10;;;;;;4996763;28;20182;-91
2023/12/16 06:38:52;;;;;;;17.20;9.90;;;6.80;88.20;;;;;;4996469;28;20206;-91
2023/12/16 06:41:18;;;;;;;17.03;9.40;;;6.70;88.20;;;;;;4996334;28;20256;-91
2023/12/16 06:43:44;;;;;;;15.30;9.30;;;6.80;88.10;;;;;;4996429;28;20330;-91
2023/12/16 06:46:09;;;;;;;11.87;8.60;;;6.80;88.10;;;;;;4997560;28;20209;-91
2023/12/16 06:48:35;;;;;;;15.63;8.80;;;6.80;88.20;;;;;;4996417;28;20186;-90
2023/12/16 06:51:01;;;;;;;12.67;9.17;;;6.80;88.10;;;;;;4996300;28;20198;-91
2023/12/16 06:53:27;;;;;;;16.60;9.30;;;6.80;87.90;;;;;;4979836;28;20185;-91
2023/12/16 06:55:53;;;;;;;18.33;9.73;;;6.80;88.00;;;;;;4996110;28;20178;-91
2023/12/16 06:58:22;;;;;;;21.47;17.37;;;6.70;88.10;;;;;;4996126;28;20178;-91
2023/12/16 07:00:47;;;;;;;23.97;17.17;;;6.80;88.00;;;;;;4979734;28;20201;-91
2023/12/16 07:03:13;;;;;;;23.83;17.10;;;6.80;87.80;;;;;;4979859;28;20276;-91
2023/12/16 07:05:38;;;;;;;23.53;16.43;;;6.80;87.90;;;;;;4979674;28;20240;-91
2023/12/16 07:08:04;;;;;;;16.87;15.00;;;6.70;88.10;;;;;;4997342;28;20204;-91
2023/12/16 07:10:30;;;;;;;17.73;15.43;;;6.70;88.30;;;;;;4996033;28;20720;-92
2023/12/16 07:12:55;;;;;;;27.27;16.87;;;6.70;88.50;;;;;;4979922;28;20174;-91
2023/12/16 07:15:21;;;;;;;18.67;14.87;;;6.70;88.30;;;;;;4979601;28;20178;-92
2023/12/16 07:17:46;;;;;;;18.67;16.10;;;6.70;88.30;;;;;;4980048;28;20641;-92
2023/12/16 07:20:13;;;;;;;16.60;15.00;;;6.70;88.20;;;;;;4978700;28;20217;-91
2023/12/16 07:22:39;;;;;;;22.97;16.17;;;6.80;88.10;;;;;;4980246;28;20180;-91
2023/12/16 07:25:05;;;;;;;19.07;14.87;;;6.80;88.20;;;;;;4982863;28;20265;-91
2023/12/16 07:27:31;;;;;;;17.53;14.50;;;6.80;88.60;;;;;;4980059;28;20531;-91
2023/12/16 07:29:57;;;;;;;21.10;13.87;;;6.70;89.10;;;;;;4979435;28;20230;-92
2023/12/16 07:32:23;;;;;;;23.57;13.47;;;6.70;89.70;;;;;;4979243;28;20569;-91
2023/12/16 07:34:51;;;;;;;23.90;13.53;;;6.60;90.10;;;;;;4979176;28;20170;-91
2023/12/16 07:37:18;;;;;;;22.70;12.67;;;6.70;90.50;;;;;;4979136;28;20190;-91
2023/12/16 07:39:44;;;;;;;23.13;11.60;;;6.60;90.90;;;;;;4979161;28;20201;-91
2023/12/16 07:42:11;;;;;;;20.57;10.07;;;6.50;91.60;;;;;;4978850;28;20261;-91
2023/12/16 07:44:37;;;;;;;17.00;6.10;;;6.50;91.90;;;;;;4979127;28;20178;-91
2023/12/16 07:47:02;;;;;;;18.07;6.47;;;6.50;92.30;;;;;;4978880;28;20215;-91
2023/12/16 07:49:28;;;;;;;14.70;8.67;;;6.40;92.70;;;;;;4979422;28;20202;-92
2023/12/16 07:51:55;;;;;;;14.30;7.23;;;6.40;93.00;;;;;;4995021;28;20205;-92
2023/12/16 07:54:24;;;;;;;14.87;7.37;;;6.30;93.50;;;;;;4979469;28;20201;-91
2023/12/16 07:56:50;;;;;;;20.57;6.87;;;6.30;93.70;;;;;;4995338;28;20177;-90
2023/12/16 07:59:16;;;;;;;25.90;6.83;;;6.30;94.00;;;;;;4996363;28;20194;-91
2023/12/16 08:01:42;;;;;;;21.60;8.87;;;6.30;94.20;;;;;;4978581;28;20281;-92
2023/12/16 08:04:07;;;;;;;24.97;10.17;;;6.30;94.40;;;;;;4995212;28;20616;-91
2023/12/16 08:06:33;;;;;;;19.10;9.10;;;6.30;94.50;;;;;;4996136;28;20197;-92
2023/12/16 08:08:58;;;;;;;24.40;7.53;;;6.30;94.70;;;;;;4995061;28;20254;-91
2023/12/16 08:11:24;;;;;;;17.30;5.03;;;6.30;94.80;;;;;;4994908;28;20213;-91
2023/12/16 08:13:50;;;;;;;24.57;9.17;;;6.30;94.90;;;;;;4994964;28;20182;-91
2023/12/16 08:16:15;;;;;;;22.57;9.23;;;6.30;95.00;;;;;;4994737;28;20182;-91
2023/12/16 08:18:41;;;;;;;26.27;9.80;;;6.30;95.10;;;;;;4994525;28;20178;-91
2023/12/16 08:21:07;;;;;;;28.90;8.33;;;6.30;95.10;;;;;;4994692;28;20186;-92
2023/12/16 08:23:32;;;;;;;22.03;8.37;;;6.30;95.10;;;;;;4994640;28;20602;-92
2023/12/16 08:25:58;;;;;;;30.87;9.53;;;6.30;95.20;;;;;;4994398;28;20193;-91
2023/12/16 08:28:24;;;;;;;23.40;11.10;;;6.30;95.20;;;;;;4978549;28;20280;-92
2023/12/16 08:30:52;;;;;;;41.67;11.23;;;6.40;95.20;;;;;;4978937;28;20290;-90
2023/12/16 08:33:17;;;;;;;28.83;10.00;;;6.40;95.20;;;;;;4978377;28;20537;-92
2023/12/16 08:35:44;;;;;;;26.90;10.10;;;6.40;95.30;;;;;;4978103;28;20222;-91
2023/12/16 08:38:09;;;;;;;24.87;11.50;;;6.40;95.30;;;;;;4978348;28;20222;-91
2023/12/16 08:40:35;;;;;;;27.87;11.57;;;6.40;95.30;;;;;;4994347;28;20198;-90
2023/12/16 08:43:00;;;;;;;16.43;10.50;;;6.50;95.20;;;;;;4978721;28;20193;-91
2023/12/16 08:45:26;;;;;;;25.73;9.97;;;6.40;95.20;;;;;;4978164;28;20248;-91
2023/12/16 08:47:51;;;;;;;26.97;8.60;;;6.50;95.20;;;;;;4995859;28;20178;-91
2023/12/16 08:50:17;;;;;;;25.27;12.13;;;6.40;95.20;;;;;;4994061;28;20205;-91
2023/12/16 08:52:43;;;;;;;24.80;11.23;;;6.50;95.20;;;;;;4978613;28;20197;-91
2023/12/16 08:55:08;;;;;;;32.83;12.87;;;6.50;95.30;;;;;;4979126;28;20185;-90
2023/12/16 08:57:34;;;;;;;30.97;11.73;;;6.40;95.40;;;;;;4978643;28;20186;-90
2023/12/16 08:59:59;;;;;;;35.17;11.90;;;6.40;95.40;;;;;;4979317;28;20201;-92
2023/12/16 09:02:25;;;;;;;33.73;12.33;;;6.40;95.40;;;;;;4977474;28;20178;-90
2023/12/16 09:04:51;;;;;;;28.70;11.50;;;6.40;95.50;;;;;;4977261;28;20190;-91
2023/12/16 09:07:17;;;;;;;33.80;12.50;;;6.40;95.60;;;;;;4977511;28;20190;-91
2023/12/16 09:09:44;;;;;;;32.43;12.33;;;6.30;95.70;;;;;;4977455;28;20202;-91
2023/12/16 09:12:10;;;;;;;25.63;14.10;;;6.30;95.70;;;;;;4976920;28;20202;-92
2023/12/16 09:14:38;;;;;;;21.07;12.43;;;6.40;95.80;;;;;;4961350;28;20742;-91
2023/12/16 09:17:03;;;;;;;26.40;12.33;;;6.40;95.80;;;;;;4994502;28;20290;-91
2023/12/16 09:19:29;;;;;;;23.37;11.13;;;6.40;95.90;;;;;;4994604;28;20201;-91
2023/12/16 09:21:55;;;;;;;29.03;13.50;;;6.40;95.90;;;;;;4994586;28;20178;-91
2023/12/16 09:24:20;;;;;;;34.90;14.47;;;6.40;96.00;;;;;;4977052;28;20642;-91
2023/12/16 09:26:46;;;;;;;25.67;12.03;;;6.40;96.10;;;;;;4976959;28;20265;-90
2023/12/16 09:29:12;;;;;;;26.97;13.73;;;6.40;96.10;;;;;;4976874;28;20693;-91
2023/12/16 09:31:37;;;;;;;35.80;15.97;;;6.40;96.10;;;;;;4978004;28;20624;-91
2023/12/16 09:34:04;;;;;;;37.33;16.73;;;6.40;96.20;;;;;;4977282;28;20181;-91
2023/12/16 09:36:30;;;;;;;31.43;14.97;;;6.40;96.30;;;;;;4976758;28;20177;-91
2023/12/16 09:38:57;;;;;;;37.37;16.20;;;6.40;96.30;;;;;;4977581;28;20209;-92
2023/12/16 09:41:30;;;;;;;31.27;14.23;;;6.50;96.30;;;;;;4979499;28;20178;-90
2023/12/16 09:44:03;;;;;;;34.77;15.13;;;6.50;96.40;;;;;;4978824;28;20188;-90
2023/12/16 09:46:33;;;;;;;51.87;16.50;;;6.60;96.40;;;;;;4981533;28;20182;-89
2023/12/16 09:49:02;;;;;;;27.17;12.97;;;6.60;96.40;;;;;;4982427;28;20198;-92
2023/12/16 09:51:28;;;;;;;23.40;11.90;;;6.60;96.40;;;;;;4979496;28;20212;-90
2023/12/16 09:53:55;;;;;;;36.97;17.70;;;6.70;96.40;;;;;;4981004;28;20277;-91
2023/12/16 09:56:20;;;;;;;24.63;13.93;;;6.70;96.30;;;;;;4978401;28;20178;-92
2023/12/16 09:58:48;;;;;;;24.13;14.70;;;6.80;96.40;;;;;;4976905;28;20583;-91
2023/12/16 10:01:14;;;;;;;45.57;18.67;;;6.80;96.40;;;;;;4976985;28;20216;-91
2023/12/16 10:03:41;;;;;;;32.70;16.87;;;6.80;96.40;;;;;;4977133;28;20225;-91
2023/12/16 10:06:10;;;;;;;30.13;17.57;;;6.80;96.30;;;;;;4977272;28;20178;-91
2023/12/16 10:08:36;;;;;;;28.30;13.43;;;6.90;96.30;;;;;;4977204;28;20193;-93
2023/12/16 10:11:03;;;;;;;27.03;15.33;;;6.90;96.30;;;;;;4977769;28;20209;-91
2023/12/16 10:13:31;;;;;;;23.43;14.77;;;6.90;96.30;;;;;;4994353;28;20170;-91
2023/12/16 10:15:57;;;;;;;25.97;12.27;;;6.90;96.20;;;;;;4977356;28;20205;-90
2023/12/16 10:18:25;;;;;;;22.83;13.23;;;6.90;96.20;;;;;;4978097;28;20273;-91
2023/12/16 10:20:50;;;;;;;31.33;16.07;;;6.90;96.10;;;;;;4977033;28;20230;-91
2023/12/16 10:23:16;;;;;;;21.90;14.23;;;7.00;96.10;;;;;;4977422;28;20214;-91
2023/12/16 10:25:42;;;;;;;33.20;15.50;;;7.00;96.00;;;;;;4977529;28;20261;-90
2023/12/16 10:28:07;;;;;;;27.07;14.93;;;7.00;96.00;;;;;;4994601;28;20181;-90
2023/12/16 10:30:33;;;;;;;30.13;14.97;;;7.10;95.90;;;;;;4977697;28;20210;-91
2023/12/16 10:33:03;;;;;;;22.33;15.43;;;7.10;95.90;;;;;;4977660;28;20179;-92
2023/12/16 10:35:29;;;;;;;24.20;16.10;;;7.10;95.80;;;;;;4976531;28;20188;-92
2023/12/16 10:37:58;;;;;;;26.47;13.10;;;7.10;95.80;;;;;;4976538;28;20190;-92
2023/12/16 10:40:24;;;;;;;21.23;12.90;;;7.10;95.70;;;;;;4977797;28;20229;-90
2023/12/16 10:42:50;;;;;;;22.27;11.00;;;7.20;95.70;;;;;;4994129;28;20201;-91
2023/12/16 10:45:16;;;;;;;24.73;15.00;;;7.20;95.70;;;;;;4977427;28;20554;-92
2023/12/16 10:47:42;;;;;;;26.80;14.07;;;7.20;95.60;;;;;;4977523;28;20589;-93
2023/12/16 10:50:08;;;;;;;19.67;14.20;;;7.30;95.60;;;;;;4977632;28;20201;-92
2023/12/16 10:52:42;;;;;;;22.47;12.13;;;7.30;95.50;;;;;;4978418;28;20220;-92
2023/12/16 10:55:16;;;;;;;23.57;14.93;;;7.30;95.50;;;;;;4982126;28;20265;-93
2023/12/16 10:57:53;;;;;;;20.13;12.37;;;7.30;95.40;;;;;;4980776;28;20178;-91
2023/12/16 11:00:28;;;;;;;20.60;14.07;;;7.30;95.40;;;;;;4980805;28;20581;-91
2023/12/16 11:03:22;;;;;;;25.43;14.67;;;7.30;95.40;;;;;;4980286;28;20185;-92
2023/12/16 11:05:56;;;;;;;25.73;15.13;;;7.30;95.30;;;;;;4962477;28;20293;-92
2023/12/16 11:08:23;;;;;;;27.83;13.90;;;7.40;95.30;;;;;;4997467;28;20159;-91
2023/12/16 11:10:49;;;;;;;24.47;14.00;;;7.30;95.30;;;;;;4980254;28;20685;-91
2023/12/16 11:13:16;;;;;;;24.53;14.37;;;7.30;95.20;;;;;;4997708;28;20205;-91
2023/12/16 11:15:42;;;;;;;27.00;13.80;;;7.40;95.20;;;;;;4979685;28;20181;-91
2023/12/16 11:18:19;;;;;;;19.97;14.53;;;7.40;95.20;;;;;;4979801;28;20726;-91
2023/12/16 11:20:48;;;;;;;26.60;14.10;;;7.40;95.30;;;;;;4981257;28;20197;-92
2023/12/16 11:23:17;;;;;;;26.17;14.60;;;7.40;95.20;;;;;;4981462;28;20186;-92
2023/12/16 11:25:43;;;;;;;33.53;15.90;;;7.40;95.30;;;;;;4981282;28;20177;-92
2023/12/16 11:28:12;;;;;;;21.90;14.93;;;7.40;95.30;;;;;;4981336;28;20185;-92
2023/12/16 11:30:40;;;;;;;29.60;16.13;;;7.40;95.30;;;;;;4980396;28;20214;-92
2023/12/16 11:33:06;;;;;;;32.57;16.90;;;7.40;95.40;;;;;;4980464;28;20174;-92
2023/12/16 11:35:35;;;;;;;30.40;16.50;;;7.40;95.40;;;;;;4980539;28;20523;-91
2023/12/16 11:38:01;;;;;;;27.60;16.37;;;7.40;95.40;;;;;;4996376;28;20182;-92
2023/12/16 11:40:49;;;;;;;28.27;16.67;;;7.40;95.50;;;;;;4979462;28;20209;-91
2023/12/16 11:43:14;;;;;;;20.53;12.63;;;7.40;95.50;;;;;;4979564;28;20233;-90
2023/12/16 11:45:45;;;;;;;20.83;14.87;;;7.40;95.50;;;;;;4978839;28;20638;-92
2023/12/16 11:48:14;;;;;;;26.93;15.00;;;7.50;95.50;;;;;;4978858;28;20213;-91
2023/12/16 11:50:41;;;;;;;32.07;16.93;;;7.50;95.50;;;;;;4978616;28;20221;-91
2023/12/16 11:53:12;;;;;;;22.60;15.10;;;7.50;95.60;;;;;;4978770;28;20269;-91
2023/12/16 11:55:39;;;;;;;25.80;16.50;;;7.50;95.60;;;;;;4978601;28;20314;-91
2023/12/16 11:58:05;;;;;;;28.50;16.37;;;7.40;95.60;;;;;;4978514;28;20189;-92
2023/12/16 12:00:31;;;;;;;20.00;13.27;;;7.40;95.70;;;;;;4978791;28;20202;-91
2023/12/16 12:03:00;;;;;;;24.50;17.33;;;7.50;95.80;;;;;;4978414;28;20178;-91
2023/12/16 12:05:29;;;;;;;28.67;17.57;;;7.40;95.80;;;;;;4977848;28;20178;-91
2023/12/16 12:07:56;;;;;;;29.80;18.00;;;7.50;95.90;;;;;;4979187;28;20184;-91
2023/12/16 12:10:22;;;;;;;23.27;16.03;;;7.40;95.90;;;;;;4978767;28;20680;-91
2023/12/16 12:12:48;;;;;;;23.13;16.13;;;7.50;95.90;;;;;;4995962;28;20181;-90
2023/12/16 12:15:14;;;;;;;29.90;16.80;;;7.50;96.00;;;;;;4978301;28;20650;-91
2023/12/16 12:17:40;;;;;;;26.70;16.03;;;7.50;96.00;;;;;;4978223;28;20177;-90
2023/12/16 12:20:07;;;;;;;22.93;15.77;;;7.40;96.00;;;;;;4978242;28;20197;-91
2023/12/16 12:22:33;;;;;;;29.43;17.33;;;7.50;96.00;;;;;;4978126;28;20186;-91
2023/12/16 12:24:59;;;;;;;34.73;18.47;;;7.40;96.10;;;;;;4978246;28;20178;-91
2023/12/16 12:27:27;;;;;;;28.50;17.77;;;7.50;96.10;;;;;;4978398;28;20178;-91
2023/12/16 12:30:05;;;;;;;29.83;19.57;;;7.40;96.10;;;;;;4977922;28;20194;-92
2023/12/16 12:32:32;;;;;;;33.47;19.47;;;7.40;96.20;;;;;;4978030;28;20201;-91
2023/12/16 12:35:06;;;;;;;32.57;18.50;;;7.50;96.20;;;;;;4977755;28;20181;-91